createdAt,value
2022-08-05T00:00:19.196Z,14.13
2022-08-05T00:00:51.631Z,32.28
2022-08-05T00:01:28.576Z,8.85
2022-08-05T00:02:07.583Z,11.65
2022-08-05T00:02:51.284Z,7.82
2022-08-05T00:03:24.433Z,21.08
2022-08-05T00:03:57.639Z,22.00
2022-08-05T00:04:30.028Z,14.55
2022-08-05T00:05:05.816Z,8.00
2022-08-05T00:06:05.771Z,17.70
2022-08-05T00:06:33.250Z,8.77
2022-08-05T00:07:27.132Z,18.17
2022-08-05T00:08:01.579Z,25.13
2022-08-05T00:08:36.197Z,12.25
2022-08-05T00:09:14.892Z,20.15
2022-08-05T00:09:48.637Z,12.27
2022-08-05T00:10:21.873Z,13.90
2022-08-05T00:11:01.313Z,8.68
2022-08-05T00:11:35.062Z,18.40
2022-08-05T00:12:21.051Z,10.23
2022-08-05T00:12:56.850Z,17.52
2022-08-05T00:13:38.922Z,10.82
2022-08-05T00:14:17.034Z,19.67
2022-08-05T00:14:51.844Z,9.38
2022-08-05T00:15:55.979Z,13.65
2022-08-05T00:16:17.217Z,22.35
2022-08-05T00:17:28.648Z,12.43
2022-08-05T00:18:00.855Z,10.00
2022-08-05T00:18:35.050Z,28.80
2022-08-05T00:19:07.627Z,11.93
2022-08-05T00:19:44.004Z,25.75
2022-08-05T00:20:20.266Z,11.65
2022-08-05T00:20:52.953Z,12.07
2022-08-05T00:21:25.317Z,33.08
2022-08-05T00:22:03.438Z,21.10
2022-08-05T00:22:37.041Z,31.40
2022-08-05T00:23:12.928Z,45.20
2022-08-05T00:23:53.551Z,44.65
2022-08-05T00:24:37.489Z,46.13
2022-08-05T00:25:15.021Z,73.45
2022-08-05T00:25:49.097Z,53.90
2022-08-05T00:26:26.551Z,17.10
2022-08-05T00:27:04.749Z,31.38
2022-08-05T00:27:42.923Z,11.18
2022-08-05T00:28:15.692Z,79.05
2022-08-05T00:28:53.577Z,74.15
2022-08-05T00:29:27.478Z,56.03
2022-08-05T00:30:00.424Z,33.05
2022-08-05T00:30:35.482Z,82.00
2022-08-05T00:31:08.719Z,63.08
2022-08-05T00:32:11.206Z,43.67
2022-08-05T00:32:35.900Z,44.05
2022-08-05T00:34:41.974Z,82.18
2022-08-05T00:34:54.425Z,82.53
2022-08-05T00:35:06.683Z,117.20
2022-08-05T00:36:14.770Z,93.95
2022-08-05T00:37:11.240Z,120.75
2022-08-05T00:37:24.993Z,64.25
2022-08-05T00:37:57.468Z,99.65
2022-08-05T00:38:33.993Z,96.45
2022-08-05T00:39:13.439Z,31.55
2022-08-05T00:39:58.566Z,71.80
2022-08-05T00:40:31.747Z,93.63
2022-08-05T00:41:11.551Z,135.00
2022-08-05T00:41:55.305Z,14.63
2022-08-05T00:42:35.453Z,34.38
2022-08-05T00:43:09.179Z,32.03
2022-08-05T00:43:50.013Z,65.43
2022-08-05T00:44:30.856Z,165.63
2022-08-05T00:45:05.341Z,61.72
2022-08-05T00:45:43.572Z,38.65
2022-08-05T00:46:16.558Z,8.10
2022-08-05T00:46:54.158Z,8.82
2022-08-05T00:47:52.980Z,52.78
2022-08-05T00:48:27.432Z,39.83
2022-08-05T00:49:03.938Z,43.97
2022-08-05T00:49:44.674Z,11.48
2022-08-05T00:50:25.493Z,67.65
2022-08-05T00:50:57.998Z,17.80
2022-08-05T00:51:50.459Z,22.60
2022-08-05T00:52:28.239Z,17.58
2022-08-05T00:53:00.921Z,31.60
2022-08-05T00:54:00.466Z,84.60
2022-08-05T00:54:27.935Z,112.63
2022-08-05T00:55:02.743Z,119.80
2022-08-05T00:55:43.801Z,97.82
2022-08-05T00:56:17.385Z,89.47
2022-08-05T00:56:55.302Z,73.47
2022-08-05T00:57:38.193Z,39.50
2022-08-05T00:58:20.180Z,73.93
2022-08-05T00:58:52.695Z,41.13
2022-08-05T00:59:26.003Z,58.58
2022-08-05T01:00:11.005Z,38.85
2022-08-05T01:00:43.894Z,23.77
2022-08-05T01:01:42.073Z,45.92
2022-08-05T01:02:10.348Z,51.53
2022-08-05T01:02:43.786Z,79.43
2022-08-05T01:03:22.814Z,44.25
2022-08-05T01:03:55.761Z,24.55
2022-08-05T01:04:29.955Z,22.75
2022-08-05T01:05:03.170Z,47.60
2022-08-05T01:06:15.477Z,88.15
2022-08-05T01:06:48.772Z,23.73
2022-08-05T01:07:21.445Z,10.75
2022-08-05T01:08:40.258Z,49.67
2022-08-05T01:08:47.324Z,94.47
2022-08-05T01:09:20.396Z,43.47
2022-08-05T01:09:55.450Z,49.97
2022-08-05T01:10:29.723Z,54.42
2022-08-05T01:11:22.709Z,43.72
2022-08-05T01:12:04.502Z,27.75
2022-08-05T01:13:05.223Z,48.03
2022-08-05T01:14:01.880Z,47.70
2022-08-05T01:14:41.304Z,29.10
2022-08-05T01:15:18.692Z,83.85
2022-08-05T01:16:09.351Z,104.47
2022-08-05T01:16:48.096Z,45.05
2022-08-05T01:17:27.757Z,24.95
2022-08-05T01:18:04.160Z,66.30
2022-08-05T01:18:40.924Z,75.88
2022-08-05T01:19:46.264Z,39.72
2022-08-05T01:20:33.950Z,48.00
2022-08-05T01:21:22.759Z,45.25
2022-08-05T01:22:15.344Z,74.40
2022-08-05T01:22:51.100Z,93.22
2022-08-05T01:23:34.994Z,51.25
2022-08-05T01:24:14.567Z,11.65
2022-08-05T01:25:05.245Z,58.90
2022-08-05T01:25:52.370Z,86.28
2022-08-05T01:26:32.152Z,85.10
2022-08-05T01:27:22.199Z,82.22
2022-08-05T01:28:06.729Z,67.13
2022-08-05T01:28:41.259Z,87.75
2022-08-05T01:29:23.127Z,48.72
2022-08-05T01:29:57.337Z,71.05
2022-08-05T01:30:34.800Z,58.88
2022-08-05T01:31:11.446Z,80.97
2022-08-05T01:31:45.440Z,59.45
2022-08-05T01:32:20.854Z,28.08
2022-08-05T01:32:53.983Z,14.13
2022-08-05T01:33:35.435Z,74.53
2022-08-05T01:34:58.616Z,88.15
2022-08-05T01:35:51.295Z,89.00
2022-08-05T01:36:28.053Z,105.82
2022-08-05T01:37:24.763Z,82.50
2022-08-05T01:37:59.415Z,105.75
2022-08-05T01:38:33.025Z,83.82
2022-08-05T01:39:05.605Z,12.18
2022-08-05T01:39:46.849Z,58.28
2022-08-05T01:40:21.834Z,45.70
2022-08-05T01:41:02.279Z,71.05
2022-08-05T01:41:35.769Z,69.95
2022-08-05T01:42:12.782Z,53.05
2022-08-05T01:42:49.459Z,58.15
2022-08-05T01:43:24.150Z,59.65
2022-08-05T01:43:56.843Z,59.65
2022-08-05T01:44:35.197Z,21.55
2022-08-05T01:45:08.412Z,26.65
2022-08-05T01:45:43.044Z,41.88
2022-08-05T01:46:41.591Z,10.18
2022-08-05T01:47:10.644Z,98.18
2022-08-05T01:47:46.108Z,56.60
2022-08-05T01:48:21.839Z,58.55
2022-08-05T01:48:55.979Z,28.45
2022-08-05T01:49:42.799Z,58.67
2022-08-05T01:50:28.823Z,28.25
2022-08-05T01:51:12.421Z,59.15
2022-08-05T01:51:51.884Z,84.57
2022-08-05T01:52:25.592Z,50.60
2022-08-05T01:53:01.760Z,39.05
2022-08-05T01:53:55.108Z,70.00
2022-08-05T01:54:32.066Z,12.02
2022-08-05T01:55:10.023Z,76.35
2022-08-05T01:55:44.355Z,77.72
2022-08-05T01:58:09.431Z,90.53
2022-08-05T01:58:10.723Z,87.07
2022-08-05T01:58:15.792Z,73.55
2022-08-05T01:59:01.992Z,85.07
2022-08-05T01:59:39.137Z,96.50
2022-08-05T02:00:12.406Z,77.00
2022-08-05T02:00:49.224Z,103.65
2022-08-05T02:01:24.652Z,88.65
2022-08-05T02:01:58.860Z,90.22
2022-08-05T02:02:32.133Z,42.97
2022-08-05T02:03:24.499Z,14.38
2022-08-05T02:04:04.398Z,72.38
2022-08-05T02:04:38.401Z,92.28
2022-08-05T02:05:13.763Z,80.53
2022-08-05T02:05:49.197Z,51.15
2022-08-05T02:06:37.892Z,88.47
2022-08-05T02:07:11.128Z,100.43
2022-08-05T02:07:59.968Z,94.03
2022-08-05T02:08:33.155Z,97.72
2022-08-05T02:09:05.843Z,46.15
2022-08-05T02:09:38.203Z,82.25
2022-08-05T02:10:11.190Z,50.17
2022-08-05T02:10:52.785Z,46.38
2022-08-05T02:11:33.210Z,99.07
2022-08-05T02:12:12.806Z,21.58
2022-08-05T02:12:56.634Z,101.25
2022-08-05T02:13:48.798Z,92.22
2022-08-05T02:14:29.027Z,96.72
2022-08-05T02:15:12.041Z,122.55
2022-08-05T02:15:46.396Z,108.50
2022-08-05T02:16:19.256Z,102.88
2022-08-05T02:16:55.573Z,123.60
2022-08-05T02:18:32.055Z,113.63
2022-08-05T02:18:33.341Z,125.70
2022-08-05T02:19:12.249Z,128.95
2022-08-05T02:19:48.413Z,125.97
2022-08-05T02:20:22.454Z,118.70
2022-08-05T02:20:58.958Z,123.88
2022-08-05T02:21:42.928Z,127.57
2022-08-05T02:22:26.362Z,127.78
2022-08-05T02:23:01.695Z,132.35
2022-08-05T02:23:35.974Z,129.90
2022-08-05T02:24:14.289Z,122.00
2022-08-05T02:24:52.214Z,119.25
2022-08-05T02:25:35.945Z,96.43
2022-08-05T02:26:26.490Z,119.53
2022-08-05T02:27:09.120Z,146.48
2022-08-05T02:27:59.411Z,153.00
2022-08-05T02:28:38.337Z,210.13
2022-08-05T02:29:21.612Z,224.40
2022-08-05T02:30:01.118Z,202.77
2022-08-05T02:30:54.173Z,204.05
2022-08-05T02:31:28.609Z,199.25
2022-08-05T02:32:08.923Z,194.93
2022-08-05T02:32:45.773Z,199.93
2022-08-05T02:33:24.675Z,173.30
2022-08-05T02:34:12.057Z,183.95
2022-08-05T02:34:45.550Z,173.55
2022-08-05T02:35:37.346Z,162.88
2022-08-05T02:36:15.692Z,172.43
2022-08-05T02:36:52.795Z,182.07
2022-08-05T02:37:26.614Z,180.98
2022-08-05T02:38:04.607Z,172.07
2022-08-05T02:38:37.977Z,170.80
2022-08-05T02:39:12.074Z,164.48
2022-08-05T02:39:47.860Z,172.05
2022-08-05T02:40:24.443Z,149.63
2022-08-05T02:40:58.789Z,168.18
2022-08-05T02:41:58.145Z,157.05
2022-08-05T02:42:36.067Z,152.60
2022-08-05T02:43:09.648Z,162.88
2022-08-05T02:44:02.414Z,147.55
2022-08-05T02:44:38.039Z,159.68
2022-08-05T02:45:12.427Z,160.30
2022-08-05T02:45:51.926Z,151.32
2022-08-05T02:46:27.654Z,166.23
2022-08-05T02:47:01.206Z,157.02
2022-08-05T02:47:36.519Z,143.93
2022-08-05T02:48:29.536Z,160.85
2022-08-05T02:49:02.806Z,156.82
2022-08-05T02:49:40.317Z,147.90
2022-08-05T02:50:14.061Z,139.35
2022-08-05T02:50:52.146Z,161.23
2022-08-05T02:51:42.385Z,147.93
2022-08-05T02:52:30.220Z,157.65
2022-08-05T02:53:04.079Z,163.55
2022-08-05T02:53:39.761Z,154.90
2022-08-05T02:54:35.814Z,154.52
2022-08-05T02:55:10.674Z,159.57
2022-08-05T02:55:54.300Z,131.05
2022-08-05T02:56:28.255Z,159.45
2022-08-05T02:57:05.039Z,161.55
2022-08-05T02:58:11.990Z,162.55
2022-08-05T02:58:36.620Z,169.73
2022-08-05T02:59:17.137Z,159.93
2022-08-05T02:59:52.019Z,148.75
2022-08-05T03:00:25.320Z,155.80
2022-08-05T03:01:02.063Z,164.63
2022-08-05T03:01:35.574Z,151.95
2022-08-05T03:02:08.824Z,161.35
2022-08-05T03:02:42.765Z,160.13
2022-08-05T03:03:17.417Z,158.77
2022-08-05T03:04:03.113Z,147.73
2022-08-05T03:04:37.929Z,151.32
2022-08-05T03:05:11.347Z,143.52
2022-08-05T03:06:56.653Z,138.10
2022-08-05T03:06:56.884Z,147.88
2022-08-05T03:08:01.373Z,150.52
2022-08-05T03:08:29.599Z,153.65
2022-08-05T03:09:02.697Z,145.20
2022-08-05T03:09:38.432Z,152.95
2022-08-05T03:11:45.932Z,147.98
2022-08-05T03:11:56.453Z,142.10
2022-08-05T03:12:34.027Z,160.93
2022-08-05T03:13:16.826Z,153.27
2022-08-05T03:13:52.267Z,152.43
2022-08-05T03:14:35.465Z,154.23
2022-08-05T03:15:18.291Z,153.82
2022-08-05T03:15:50.813Z,157.88
2022-08-05T03:16:24.267Z,151.23
2022-08-05T03:16:56.748Z,148.00
2022-08-05T03:17:31.445Z,150.38
2022-08-05T03:18:03.913Z,152.32
2022-08-05T03:18:42.038Z,144.90
2022-08-05T03:19:20.290Z,149.73
2022-08-05T03:20:06.634Z,156.38
2022-08-05T03:20:39.207Z,140.43
2022-08-05T03:21:21.182Z,152.57
2022-08-05T03:21:54.062Z,143.98
2022-08-05T03:22:32.338Z,147.30
2022-08-05T03:23:07.099Z,133.52
2022-08-05T03:23:40.943Z,140.73
2022-08-05T03:24:13.626Z,121.53
2022-08-05T03:24:50.791Z,133.43
2022-08-05T03:25:33.016Z,134.82
2022-08-05T03:26:32.152Z,157.68
2022-08-05T03:27:06.758Z,153.20
2022-08-05T03:27:59.785Z,151.52
2022-08-05T03:28:31.888Z,142.18
2022-08-05T03:29:04.963Z,119.10
2022-08-05T03:30:38.294Z,144.63
2022-08-05T03:31:10.966Z,140.80
2022-08-05T03:32:04.791Z,141.10
2022-08-05T03:32:41.467Z,124.95
2022-08-05T03:33:14.021Z,137.07
2022-08-05T03:33:52.833Z,115.93
2022-08-05T03:34:25.670Z,133.40
2022-08-05T03:34:59.794Z,132.55
2022-08-05T03:35:33.817Z,133.23
2022-08-05T03:36:06.753Z,139.07
2022-08-05T03:36:44.697Z,132.60
2022-08-05T03:37:17.197Z,129.38
2022-08-05T03:37:50.323Z,131.00
2022-08-05T03:38:33.225Z,123.07
2022-08-05T03:39:20.351Z,139.65
2022-08-05T03:40:01.852Z,141.18
2022-08-05T03:40:39.789Z,138.93
2022-08-05T03:41:12.676Z,112.35
2022-08-05T03:41:45.381Z,137.32
2022-08-05T03:42:19.369Z,134.82
2022-08-05T03:42:52.804Z,119.20
2022-08-05T03:44:09.202Z,139.38
2022-08-05T03:44:19.741Z,147.75
2022-08-05T03:44:52.599Z,137.38
2022-08-05T03:45:25.100Z,137.00
2022-08-05T03:45:59.023Z,149.68
2022-08-05T03:46:32.701Z,141.13
2022-08-05T03:47:05.186Z,143.93
2022-08-05T03:47:41.426Z,147.63
2022-08-05T03:48:14.412Z,128.68
2022-08-05T03:49:31.072Z,135.73
2022-08-05T03:50:18.976Z,110.05
2022-08-05T03:50:51.896Z,75.40
2022-08-05T03:52:37.667Z,103.32
2022-08-05T03:52:38.943Z,82.03
2022-08-05T03:54:59.986Z,110.10
2022-08-05T03:55:53.700Z,110.28
2022-08-05T03:56:07.175Z,106.00
2022-08-05T03:56:33.145Z,113.43
2022-08-05T03:58:01.080Z,108.00
2022-08-05T03:58:34.714Z,112.63
2022-08-05T03:59:08.747Z,115.22
2022-08-05T03:59:47.633Z,20.08
2022-08-05T04:00:31.522Z,50.78
2022-08-05T04:01:06.566Z,95.40
2022-08-05T04:01:40.662Z,15.65
2022-08-05T04:02:17.516Z,55.22
2022-08-05T04:03:07.601Z,94.93
2022-08-05T04:04:08.867Z,82.43
2022-08-05T04:04:42.937Z,94.25
2022-08-05T04:05:17.726Z,102.43
2022-08-05T04:05:50.977Z,67.13
2022-08-05T04:06:23.693Z,93.07
2022-08-05T04:06:58.185Z,77.50
2022-08-05T04:07:31.120Z,77.88
2022-08-05T04:08:14.485Z,79.57
2022-08-05T04:08:55.238Z,59.30
2022-08-05T04:09:28.535Z,90.07
2022-08-05T04:10:01.718Z,104.78
2022-08-05T04:10:38.332Z,97.15
2022-08-05T04:11:11.165Z,95.60
2022-08-05T04:11:50.438Z,70.78
2022-08-05T04:12:25.211Z,80.32
2022-08-05T04:12:58.899Z,84.15
2022-08-05T04:13:51.247Z,91.35
2022-08-05T04:14:29.771Z,110.78
2022-08-05T04:15:03.846Z,41.50
2022-08-05T04:15:36.757Z,87.43
2022-08-05T04:16:09.721Z,107.68
2022-08-05T04:16:46.863Z,28.75
2022-08-05T04:17:19.435Z,93.97
2022-08-05T04:17:56.610Z,92.13
2022-08-05T04:18:29.936Z,104.35
2022-08-05T04:19:02.800Z,95.22
2022-08-05T04:19:44.060Z,42.08
2022-08-05T04:20:18.317Z,110.45
2022-08-05T04:20:56.084Z,112.25
2022-08-05T04:22:05.736Z,106.32
2022-08-05T04:22:21.329Z,126.78
2022-08-05T04:22:53.792Z,110.50
2022-08-05T04:24:04.836Z,114.95
2022-08-05T04:24:22.704Z,122.43
2022-08-05T04:24:55.234Z,124.57
2022-08-05T04:25:56.654Z,132.05
2022-08-05T04:26:20.417Z,136.40
2022-08-05T04:26:53.015Z,125.75
2022-08-05T04:27:33.065Z,139.07
2022-08-05T04:28:17.300Z,142.80
2022-08-05T04:28:51.800Z,130.57
2022-08-05T04:29:24.529Z,132.20
2022-08-05T04:29:59.551Z,131.77
2022-08-05T04:30:36.457Z,142.60
2022-08-05T04:31:10.652Z,135.23
2022-08-05T04:31:43.114Z,134.98
2022-08-05T04:32:20.031Z,131.95
2022-08-05T04:33:03.643Z,136.93
2022-08-05T04:34:17.269Z,113.70
2022-08-05T04:34:32.238Z,129.18
2022-08-05T04:35:07.147Z,135.38
2022-08-05T04:36:10.932Z,131.27
2022-08-05T04:36:49.720Z,138.60
2022-08-05T04:38:01.472Z,133.63
2022-08-05T04:38:15.588Z,111.63
2022-08-05T04:38:51.031Z,132.27
2022-08-05T04:39:24.520Z,129.70
2022-08-05T04:40:00.083Z,144.32
2022-08-05T04:40:39.297Z,137.88
2022-08-05T04:41:16.955Z,128.00
2022-08-05T04:41:50.234Z,97.40
2022-08-05T04:42:25.550Z,133.30
2022-08-05T04:42:58.097Z,136.13
2022-08-05T04:43:30.435Z,111.32
2022-08-05T04:44:08.938Z,100.18
2022-08-05T04:44:42.099Z,123.28
2022-08-05T04:45:22.969Z,133.90
2022-08-05T04:46:05.064Z,137.57
2022-08-05T04:46:38.719Z,133.15
2022-08-05T04:47:12.076Z,137.88
2022-08-05T04:47:49.396Z,137.38
2022-08-05T04:48:27.396Z,142.60
2022-08-05T04:49:00.560Z,129.98
2022-08-05T04:49:38.499Z,99.20
2022-08-05T04:50:34.327Z,112.00
2022-08-05T04:51:11.340Z,138.70
2022-08-05T04:51:44.400Z,140.25
2022-08-05T04:52:16.864Z,130.35
2022-08-05T04:52:51.155Z,137.20
2022-08-05T04:53:23.577Z,141.52
2022-08-05T04:53:56.373Z,142.40
2022-08-05T04:54:28.760Z,130.63
2022-08-05T04:55:13.940Z,130.32
2022-08-05T04:56:14.264Z,139.98
2022-08-05T04:56:40.091Z,139.90
2022-08-05T04:57:12.670Z,134.55
2022-08-05T04:57:47.771Z,139.82
2022-08-05T04:58:23.987Z,134.95
2022-08-05T04:58:56.694Z,137.10
2022-08-05T04:59:38.789Z,134.30
2022-08-05T05:00:11.967Z,125.18
2022-08-05T05:00:46.490Z,136.52
2022-08-05T05:02:06.279Z,117.72
2022-08-05T05:02:37.281Z,145.93
2022-08-05T05:03:08.696Z,136.10
2022-08-05T05:03:42.078Z,111.10
2022-08-05T05:04:15.536Z,138.60
2022-08-05T05:04:50.642Z,142.85
2022-08-05T05:05:28.125Z,142.30
2022-08-05T05:06:38.882Z,133.70
2022-08-05T05:06:57.665Z,143.20
2022-08-05T05:07:32.487Z,144.40
2022-08-05T05:08:14.165Z,127.78
2022-08-05T05:08:59.268Z,132.00
2022-08-05T05:09:33.072Z,135.13
2022-08-05T05:10:09.902Z,96.93
2022-08-05T05:10:55.909Z,135.45
2022-08-05T05:11:41.647Z,135.15
2022-08-05T05:12:21.226Z,139.65
2022-08-05T05:12:54.734Z,138.43
2022-08-05T05:13:32.420Z,131.02
2022-08-05T05:14:16.266Z,144.65
2022-08-05T05:14:50.581Z,133.55
2022-08-05T05:15:57.513Z,124.45
2022-08-05T05:16:16.537Z,127.40
2022-08-05T05:16:52.152Z,128.27
2022-08-05T05:17:56.159Z,138.07
2022-08-05T05:18:31.076Z,145.70
2022-08-05T05:19:18.745Z,134.82
2022-08-05T05:19:56.584Z,133.88
2022-08-05T05:20:29.419Z,147.82
2022-08-05T05:21:02.260Z,142.73
2022-08-05T05:21:35.787Z,138.50
2022-08-05T05:22:23.590Z,126.90
2022-08-05T05:22:58.936Z,139.43
2022-08-05T05:23:39.310Z,137.38
2022-08-05T05:24:23.751Z,135.38
2022-08-05T05:25:17.552Z,141.25
2022-08-05T05:25:50.195Z,128.73
2022-08-05T05:26:28.583Z,130.68
2022-08-05T05:27:05.661Z,136.15
2022-08-05T05:27:45.847Z,135.30
2022-08-05T05:28:26.160Z,104.28
2022-08-05T05:29:02.469Z,134.30
2022-08-05T05:30:04.496Z,121.43
2022-08-05T05:30:29.226Z,138.70
2022-08-05T05:31:03.031Z,126.80
2022-08-05T05:32:12.746Z,133.32
2022-08-05T05:32:48.197Z,127.13
2022-08-05T05:33:23.387Z,119.95
2022-08-05T05:33:58.807Z,135.88
2022-08-05T05:34:32.278Z,137.95
2022-08-05T05:35:04.720Z,126.57
2022-08-05T05:35:39.716Z,138.38
2022-08-05T05:36:15.118Z,134.00
2022-08-05T05:36:48.518Z,132.25
2022-08-05T05:37:29.187Z,132.77
2022-08-05T05:38:14.160Z,132.70
2022-08-05T05:38:46.961Z,138.05
2022-08-05T05:39:19.494Z,126.60
2022-08-05T05:39:51.993Z,137.90
2022-08-05T05:40:26.127Z,95.18
2022-08-05T05:41:00.552Z,122.70
2022-08-05T05:41:40.546Z,140.75
2022-08-05T05:42:47.234Z,142.77
2022-08-05T05:43:22.270Z,148.93
2022-08-05T05:44:35.962Z,152.02
2022-08-05T05:45:05.025Z,126.70
2022-08-05T05:45:37.394Z,125.22
2022-08-05T05:46:20.626Z,151.57
2022-08-05T05:46:54.252Z,135.07
2022-08-05T05:48:06.141Z,148.07
2022-08-05T05:48:27.319Z,154.10
2022-08-05T05:49:00.693Z,157.63
2022-08-05T05:49:38.967Z,137.27
2022-08-05T05:50:16.434Z,135.10
2022-08-05T05:51:25.958Z,157.10
2022-08-05T05:52:00.659Z,149.43
2022-08-05T05:52:40.702Z,148.43
2022-08-05T05:53:22.168Z,147.75
2022-08-05T05:53:58.535Z,151.55
2022-08-05T05:54:49.942Z,153.40
2022-08-05T05:55:23.700Z,160.10
2022-08-05T05:56:16.086Z,146.85
2022-08-05T05:56:58.592Z,152.27
2022-08-05T05:57:42.651Z,140.40
2022-08-05T05:58:15.487Z,148.50
2022-08-05T05:58:50.882Z,143.88
2022-08-05T05:59:24.594Z,151.95
2022-08-05T06:00:01.233Z,142.32
2022-08-05T06:00:34.289Z,149.25
2022-08-05T06:01:12.869Z,138.93
2022-08-05T06:01:57.692Z,150.80
2022-08-05T06:02:32.927Z,150.90
2022-08-05T06:03:40.308Z,127.72
2022-08-05T06:04:03.785Z,133.88
2022-08-05T06:04:36.494Z,120.05
2022-08-05T06:05:10.642Z,103.22
2022-08-05T06:05:54.212Z,113.82
2022-08-05T06:06:30.965Z,137.70
2022-08-05T06:07:03.839Z,154.85
2022-08-05T06:07:41.730Z,150.13
2022-08-05T06:08:14.736Z,141.13
2022-08-05T06:09:05.413Z,148.45
2022-08-05T06:10:01.515Z,142.10
2022-08-05T06:10:36.772Z,153.52
2022-08-05T06:11:21.619Z,151.00
2022-08-05T06:12:01.160Z,157.55
2022-08-05T06:12:36.281Z,147.38
2022-08-05T06:13:14.491Z,139.57
2022-08-05T06:13:50.499Z,150.10
2022-08-05T06:14:28.977Z,146.18
2022-08-05T06:15:02.036Z,109.15
2022-08-05T06:16:29.542Z,145.30
2022-08-05T06:16:30.902Z,137.88
2022-08-05T06:17:22.526Z,148.05
2022-08-05T06:17:57.309Z,153.80
2022-08-05T06:18:31.191Z,142.50
2022-08-05T06:19:05.893Z,139.98
2022-08-05T06:19:40.697Z,138.32
2022-08-05T06:20:21.544Z,140.15
2022-08-05T06:20:54.447Z,146.30
2022-08-05T06:21:36.482Z,142.57
2022-08-05T06:22:09.759Z,148.50
2022-08-05T06:22:42.250Z,137.93
2022-08-05T06:23:14.774Z,141.25
2022-08-05T06:23:47.258Z,150.02
2022-08-05T06:24:22.509Z,116.28
2022-08-05T06:24:59.600Z,141.18
2022-08-05T06:26:12.201Z,143.73
2022-08-05T06:26:25.135Z,148.18
2022-08-05T06:26:57.667Z,129.18
2022-08-05T06:28:11.284Z,141.15
2022-08-05T06:28:22.513Z,133.23
2022-08-05T06:29:03.476Z,142.52
2022-08-05T06:30:04.548Z,144.25
2022-08-05T06:30:45.711Z,144.30
2022-08-05T06:31:22.274Z,141.05
2022-08-05T06:31:55.211Z,134.15
2022-08-05T06:32:29.979Z,134.02
2022-08-05T06:33:02.350Z,146.07
2022-08-05T06:34:06.861Z,139.70
2022-08-05T06:34:27.799Z,150.77
2022-08-05T06:35:00.278Z,151.25
2022-08-05T06:36:03.619Z,139.98
2022-08-05T06:36:56.788Z,136.75
2022-08-05T06:37:56.842Z,152.25
2022-08-05T06:38:15.966Z,151.23
2022-08-05T06:38:50.648Z,138.85
2022-08-05T06:39:24.567Z,137.55
2022-08-05T06:39:59.939Z,121.63
2022-08-05T06:40:34.942Z,140.45
2022-08-05T06:41:14.872Z,126.72
2022-08-05T06:41:47.302Z,134.57
2022-08-05T06:42:20.169Z,119.57
2022-08-05T06:42:52.893Z,132.40
2022-08-05T06:43:59.187Z,143.20
2022-08-05T06:44:18.117Z,124.47
2022-08-05T06:44:54.432Z,141.32
2022-08-05T06:45:44.925Z,129.77
2022-08-05T06:46:19.012Z,133.02
2022-08-05T06:46:51.692Z,127.15
2022-08-05T06:48:11.778Z,142.52
2022-08-05T06:48:55.389Z,146.82
2022-08-05T06:49:08.878Z,141.57
2022-08-05T06:50:01.354Z,128.82
2022-08-05T06:50:34.798Z,131.50
2022-08-05T06:51:09.583Z,123.63
2022-08-05T06:51:42.795Z,122.32
2022-08-05T06:52:37.883Z,129.43
2022-08-05T06:53:19.515Z,131.68
2022-08-05T06:54:01.964Z,141.35
2022-08-05T06:54:34.716Z,146.32
2022-08-05T06:55:08.653Z,135.90
2022-08-05T06:55:42.158Z,134.98
2022-08-05T06:56:26.593Z,141.20
2022-08-05T06:57:57.632Z,126.95
2022-08-05T06:57:58.220Z,133.13
2022-08-05T06:58:43.903Z,130.48
2022-08-05T06:59:19.221Z,135.07
2022-08-05T06:59:57.945Z,135.68
2022-08-05T07:00:31.679Z,136.13
2022-08-05T07:01:06.478Z,136.80
2022-08-05T07:01:41.490Z,121.75
2022-08-05T07:02:14.950Z,121.85
2022-08-05T07:02:48.112Z,126.63
2022-08-05T07:03:32.307Z,127.03
2022-08-05T07:04:05.417Z,133.45
2022-08-05T07:04:37.857Z,134.52
2022-08-05T07:05:14.356Z,113.70
2022-08-05T07:05:51.280Z,130.45
2022-08-05T07:06:23.833Z,133.10
2022-08-05T07:07:00.421Z,102.57
2022-08-05T07:07:35.225Z,112.68
2022-08-05T07:08:10.937Z,107.68
2022-08-05T07:08:47.812Z,131.95
2022-08-05T07:09:24.979Z,129.77
2022-08-05T07:09:58.462Z,114.18
2022-08-05T07:10:32.729Z,116.40
2022-08-05T07:11:05.630Z,126.07
2022-08-05T07:11:51.746Z,125.05
2022-08-05T07:12:42.740Z,121.38
2022-08-05T07:13:57.611Z,133.70
2022-08-05T07:14:50.760Z,134.57
2022-08-05T07:16:01.297Z,128.27
2022-08-05T07:17:59.179Z,131.40
2022-08-05T07:18:01.693Z,143.32
2022-08-05T07:18:36.953Z,135.00
2022-08-05T07:19:44.297Z,141.73
2022-08-05T07:21:06.122Z,136.63
2022-08-05T07:22:01.108Z,136.20
2022-08-05T07:22:33.080Z,143.02
2022-08-05T07:23:06.345Z,125.03
2022-08-05T07:23:40.584Z,126.72
2022-08-05T07:24:21.995Z,124.50
2022-08-05T07:24:54.385Z,119.50
2022-08-05T07:25:54.699Z,126.05
2022-08-05T07:26:22.760Z,131.70
2022-08-05T07:26:57.360Z,77.07
2022-08-05T07:27:58.558Z,102.68
2022-08-05T07:28:22.372Z,132.98
2022-08-05T07:28:55.614Z,119.15
2022-08-05T07:30:24.007Z,133.93
2022-08-05T07:30:28.229Z,136.05
2022-08-05T07:31:02.919Z,140.35
2022-08-05T07:31:40.962Z,136.25
2022-08-05T07:32:27.324Z,124.47
2022-08-05T07:32:59.897Z,123.53
2022-08-05T07:33:35.271Z,124.57
2022-08-05T07:34:09.907Z,135.00
2022-08-05T07:34:46.391Z,122.20
2022-08-05T07:36:02.192Z,133.18
2022-08-05T07:36:20.796Z,124.18
2022-08-05T07:36:54.256Z,131.80
2022-08-05T07:37:36.039Z,124.32
2022-08-05T07:38:33.357Z,120.97
2022-08-05T07:39:05.870Z,123.55
2022-08-05T07:40:04.266Z,126.40
2022-08-05T07:40:32.161Z,129.30
2022-08-05T07:42:08.968Z,130.88
2022-08-05T07:42:13.376Z,131.10
2022-08-05T07:42:48.041Z,71.40
2022-08-05T07:43:21.225Z,126.75
2022-08-05T07:43:56.051Z,49.78
2022-08-05T07:44:29.071Z,123.95
2022-08-05T07:45:01.541Z,119.65
2022-08-05T07:45:56.595Z,118.53
2022-08-05T07:46:26.979Z,128.98
2022-08-05T07:46:59.338Z,113.72
2022-08-05T07:47:42.119Z,121.70
2022-08-05T07:48:15.025Z,104.18
2022-08-05T07:49:07.833Z,118.20
2022-08-05T07:49:43.540Z,120.00
2022-08-05T07:50:29.040Z,123.65
2022-08-05T07:51:08.669Z,92.88
2022-08-05T07:51:56.270Z,127.85
2022-08-05T07:52:28.628Z,87.63
2022-08-05T07:53:01.067Z,119.78
2022-08-05T07:53:37.050Z,119.60
2022-08-05T07:54:30.925Z,117.90
2022-08-05T07:55:44.396Z,131.15
2022-08-05T07:56:05.886Z,134.18
2022-08-05T07:57:14.844Z,134.23
2022-08-05T07:57:56.248Z,124.90
2022-08-05T07:58:57.456Z,120.43
2022-08-05T07:59:38.013Z,101.13
2022-08-05T08:00:14.653Z,115.20
2022-08-05T08:00:47.415Z,120.90
2022-08-05T08:01:21.954Z,109.57
2022-08-05T08:01:57.683Z,114.80
2022-08-05T08:02:31.409Z,112.47
2022-08-05T08:03:22.784Z,120.03
2022-08-05T08:03:55.213Z,123.28
2022-08-05T08:04:37.544Z,111.15
2022-08-05T08:05:11.466Z,121.88
2022-08-05T08:05:49.867Z,115.15
2022-08-05T08:06:22.501Z,101.15
2022-08-05T08:07:01.193Z,113.82
2022-08-05T08:07:39.732Z,121.22
2022-08-05T08:08:30.670Z,118.90
2022-08-05T08:09:03.975Z,108.43
2022-08-05T08:09:37.978Z,100.28
2022-08-05T08:10:10.482Z,19.55
2022-08-05T08:10:42.828Z,113.65
2022-08-05T08:11:27.390Z,97.13
2022-08-05T08:12:29.671Z,118.07
2022-08-05T08:13:01.926Z,121.50
2022-08-05T08:13:42.909Z,118.30
2022-08-05T08:14:22.268Z,103.60
2022-08-05T08:14:54.668Z,104.85
2022-08-05T08:16:33.287Z,23.92
2022-08-05T08:16:35.597Z,105.18
2022-08-05T08:17:15.960Z,40.78
2022-08-05T08:17:52.635Z,119.60
2022-08-05T08:18:25.557Z,109.30
2022-08-05T08:18:58.896Z,115.38
2022-08-05T08:20:20.913Z,111.53
2022-08-05T08:21:00.371Z,130.60
2022-08-05T08:21:17.686Z,131.55
2022-08-05T08:21:50.255Z,121.85
2022-08-05T08:22:27.109Z,111.22
2022-08-05T08:23:00.143Z,118.72
2022-08-05T08:24:02.806Z,122.60
2022-08-05T08:24:50.941Z,115.63
2022-08-05T08:25:27.029Z,112.80